x

New London Ledge Ct - Ledge Light Weather Station (ldlc3) Weather Station

3:45 - Tue 25th Apr 2017 All times are EDT. -4 hours from GMT.

  • Wind
    21mph, 30mph gusts
  • Ar Temp 53°f
  • Sea Pressure 1017.7mb
  • New London Ledge Ct - Ledge Light Weather Station
  • New London Ledge Ct - Ledge Light Weather Station

More Historic Weather Station data

Upgrade to MSW Pro to gain access to the past 30 days of data for over 8000 Wavebouys and Weather Stations around the globe.

Join Pro

Comparision Forecast

View Surf forecast
   
Ter 04/25 3:45 21 30 mph 1017.7mb 53f
3:30 17 25 mph 1017.9mb 53f
3:15 18 24 mph 1017.9mb 53f
3:00 20 26 mph 1018mb 53f
2:45 18 25 mph 1018.3mb 53f
2:30 24 30 mph 1018.4mb 53f
2:15 20 26 mph 1018.5mb 53f
2:00 22 30 mph 1018.7mb 54f
1:45 21 28 mph 1018.7mb 54f
1:30 21 28 mph 1018.8mb 54f
1:15 21 29 mph 1018.5mb 55f
1:00 18 28 mph 1018.6mb 55f
12:45 17 25 mph 1018.8mb 55f
12:30 17 25 mph 1019.1mb 55f
12:15 22 30 mph 1019.2mb 55f
12:00 24 32 mph 1019.6mb 55f
11:45 22 31 mph 1019.7mb 55f
11:30 23 30 mph 1019.7mb 55f
11:15 22 30 mph 1019.9mb 55f
11:00 21 30 mph 1020.1mb 54f
10:45 23 30 mph 1020.3mb 54f
10:30 22 26 mph 1020.6mb 54f
10:15 20 26 mph 1020.5mb 54f
10:00 21 26 mph 1020.6mb 53f
9:45 20 24 mph 1020.8mb 53f
9:30 20 26 mph 1020.8mb 53f
9:15 22 30 mph 1020.9mb 53f
9:00 20 23 mph 1020.8mb 53f
8:45 17 26 mph 1020.7mb 52f
8:30 16 22 mph 1020.8mb 52f
8:15 18 23 mph 1020.8mb 53f
8:00 18 21 mph 1020.8mb 53f
7:45 16 20 mph 1020.7mb 52f
7:30 11 18 mph 1020.6mb 52f
7:15 13 20 mph 1020.4mb 52f
7:00 11 16 mph 1020.2mb 52f
6:45 14 21 mph 1020.1mb 52f
6:30 14 18 mph 1020.1mb 52f
6:15 15 20 mph 1020.2mb 52f
6:00 13 16 mph 1020.1mb 52f
5:45 15 17 mph 1019.8mb 51f
5:30 13 17 mph 1019.7mb 52f
5:15 10 14 mph 1019.7mb 52f
5:00 9 13 mph 1019.8mb 52f
4:45 10 13 mph 1019.7mb 52f
4:30 15 18 mph 1019.7mb 52f
4:15 16 23 mph 1019.7mb 52f
4:00 14 17 mph 1019.6mb 52f
3:45 15 18 mph 1019.5mb 52f
3:30 16 18 mph 1019.5mb 52f
3:15 18 21 mph 1019.6mb 51f
3:00 17 20 mph 1019.9mb 51f
2:45 18 22 mph 1020.2mb 51f
2:30 18 21 mph 1020.5mb 51f
2:15 18 22 mph 1020.6mb 50f
2:00 18 21 mph 1020.8mb 51f
1:45 16 20 mph 1020.8mb 50f
1:30 16 18 mph 1020.7mb 50f
1:15 14 16 mph 1020.8mb 50f
1:00 13 16 mph 1020.8mb 50f
Seg 04/24 7:45 5 6 mph 1021.3mb 49f
7:15 7 9 mph 1021.2mb 48f
7:00 7 8 mph 1021mb 47f
6:45 9 10 mph 1020.9mb 47f
6:30 7 9 mph 1021.1mb 47f
6:15 10 14 mph 1020.9mb 47f
6:00 8 9 mph 1021.2mb 47f
5:45 11 13 mph 1021.3mb 47f
5:30 9 10 mph 1021.3mb 47f
5:15 10 11 mph 1021.3mb 47f
5:00 10 11 mph 1021.3mb 47f
4:45 8 9 mph 1021.3mb 47f
4:30 10 11 mph 1021.2mb 47f
4:15 13 14 mph 1021.1mb 47f
4:00 13 15 mph 1021mb 48f
3:45 11 13 mph 1020.8mb 48f
3:30 11 13 mph 1020.8mb 49f
3:15 9
mph
1020.9mb 50f
3:00 8
mph
1020.9mb 50f
2:45 5 7 mph 1021.3mb 50f
2:30 5 6 mph 1021.3mb 50f
2:15 3 5 mph 1021.3mb 50f
2:00 6
mph
1021.6mb 49f
1:45 7 8 mph 1021.7mb 49f
1:30 8 9 mph 1021.8mb 49f
1:15 9 11 mph 1021.6mb 48f
1:00 11 13 mph 1021.5mb 49f
12:45 11
mph
1021.6mb 49f
12:30 10 11 mph 1021.7mb 49f
12:15 11 14 mph 1021.8mb 48f
12:00 10 11 mph 1021.8mb 49f
11:45 6 7 mph 1021.7mb 49f
11:30 7 8 mph 1021.8mb 49f
11:15 5 6 mph 1021.9mb 49f
11:00 6 7 mph 1022mb 48f
10:45 5 6 mph 1022.1mb 49f
10:30 2
mph
1022mb 49f
10:15 2 3 mph 1021.9mb 49f
10:00 5 6 mph 1021.9mb 49f
9:45 5 7 mph 1021.9mb 49f
9:30 5
mph
1022.2mb 49f
9:15 3 5 mph 1022.4mb 51f
9:00 3 5 mph 1022.2mb 51f
8:45 3
mph
1022mb 50f
8:30 2 3 mph 1021.9mb 49f
8:15 3 5 mph 1021.8mb 48f
8:00 2 3 mph 1021.7mb 48f
7:45 2 5 mph 1021.6mb 47f
7:30 3 5 mph 1021.2mb 47f
7:15 5 6 mph 1021.1mb 44f
7:00 2 5 mph 1020.9mb 45f
6:45 3
mph
1020.7mb 46f
6:30 2 3 mph 1020.5mb 46f
6:15 5
mph
1020.4mb 44f
6:00 2 3 mph 1020.4mb 43f
5:45 1 2 mph 1020.4mb 44f
5:30  -  1 mph 1020.2mb 44f
5:15 1 2 mph 1020.2mb 44f
5:00 1 2 mph 1019.9mb 45f
4:45 2 3 mph 1019.8mb 45f
4:30 1 2 mph 1019.8mb 45f
4:15 1 2 mph 1019.6mb 46f
4:00 2 3 mph 1019.7mb 46f
3:45 3 5 mph 1019.8mb 46f
3:30 7 8 mph 1019.6mb 46f
3:15 7 8 mph 1019.5mb 46f
3:00 8 9 mph 1019.5mb 46f
2:45 5 7 mph 1019.6mb 46f
2:30 6 7 mph 1019.5mb 47f
2:15 5 7 mph 1019.7mb 46f
2:00 6 8 mph 1019.8mb 47f
1:45 7 8 mph 1019.8mb 47f
1:30 7 8 mph 1020mb 46f
1:15 7 8 mph 1020.2mb 46f
1:00 8 9 mph 1020.3mb 46f
Dom 04/23 7:45 10 11 mph 1019.1mb 47f
7:15 11 13 mph 1018.7mb 47f
7:00 11 13 mph 1018.8mb 47f
6:45 13 14 mph 1018.9mb 48f
6:30 14 15 mph 1018.7mb 48f
6:15 14 15 mph 1018.7mb 48f
6:00 15 16 mph 1018.7mb 48f
5:45 15 16 mph 1018.6mb 48f
5:30 15 16 mph 1018.3mb 48f
5:15 14 15 mph 1018.2mb 48f
5:00 14 16 mph 1018.1mb 48f
4:45 14 15 mph 1017.9mb 48f
4:30 14 15 mph 1018.3mb 48f
4:15 13 14 mph 1018.3mb 48f
4:00 13 14 mph 1018mb 48f
3:45 15 17 mph 1018mb 48f
3:30 11 15 mph 1018mb 49f
3:15 8 10 mph 1018.2mb 50f
3:00 11 14 mph 1018.3mb 49f
2:45 10 13 mph 1018.5mb 49f
2:30 8 10 mph 1018.5mb 49f
2:15 8 9 mph 1018.6mb 50f
2:00 9 10 mph 1018.7mb 51f
1:45 9 11 mph 1018.7mb 51f
1:30 10 11 mph 1018.9mb 52f
1:15 11 13 mph 1018.6mb 50f
1:00 13
mph
1018.6mb 51f
12:45 11 13 mph 1018.5mb 51f
12:30 13 14 mph 1018.5mb 50f
12:15 14 15 mph 1018.6mb 50f
12:00 13 15 mph 1018.6mb 51f
11:45 3 6 mph 1018.8mb 57f
11:30 10
mph
1018.7mb 56f
11:15 8 10 mph 1018.8mb 56f
11:00 9 11 mph 1018.7mb 55f
10:45 10 13 mph 1018.6mb 55f
10:30 9 10 mph 1018.7mb 54f
10:15 10 14 mph 1018.8mb 53f
10:00 14 16 mph 1018.6mb 53f
9:45 16 18 mph 1018.4mb 52f
9:30 15 18 mph 1018.6mb 51f
9:15 17 22 mph 1018.1mb 52f
9:00 20 22 mph 1018.2mb 51f
8:45 20 23 mph 1018.3mb 51f
8:30 15 17 mph 1018.4mb 51f
8:15 16 18 mph 1018.3mb 50f
8:00 10 13 mph 1018.3mb 50f
7:45 9 13 mph 1018.1mb 50f
7:30 8 10 mph 1018.2mb 48f
7:15 9 11 mph 1017.9mb 47f
7:00 9 13 mph 1017.7mb 47f
6:45 10 15 mph 1017.4mb 47f
6:30 14 17 mph 1017.2mb 47f
6:15 15 17 mph 1016.8mb 47f
6:00 10 14 mph 1016.8mb 48f
5:45 9 10 mph 1016.7mb 48f
5:30 8 10 mph 1016.5mb 47f
5:15 13 15 mph 1016.5mb 48f
5:00 14 16 mph 1016.2mb 49f
4:45 8 11 mph 1015.8mb 48f
4:30 2
mph
1016mb 47f
4:15 3 5 mph 1015.7mb 47f
4:00 3 5 mph 1015.7mb 47f
3:45 3 5 mph 1015.6mb 47f
3:30 3 5 mph 1015.5mb 47f
3:15 1 3 mph 1015.4mb 47f
3:00 1 2 mph 1015.2mb 47f
2:45 1 2 mph 1015.1mb 47f
2:30 2 3 mph 1015.4mb 47f
2:15 3
mph
1015.5mb 47f
2:00 2 3 mph 1015.4mb 47f
1:45 2 3 mph 1015.2mb 47f
1:30 3
mph
1015.3mb 47f
1:15 3
mph
1015.3mb 47f
1:00 2 3 mph 1015.3mb 47f
Sáb 04/22 7:45 7
mph
1013.5mb 47f
7:15 7
mph
1013mb 47f
7:00 6 7 mph 1013mb 47f
6:45 6
mph
1013mb 49f
6:30 3 5 mph 1012.8mb 49f
6:15 2
mph
1012.7mb 50f
6:00 2 3 mph 1012.8mb 49f
5:45  -  1 mph 1012.9mb 50f
5:30 2 3 mph 1012.6mb 51f
5:15 5 6 mph 1012.4mb 51f
5:00 7 8 mph 1012.4mb 50f
4:45 9 10 mph 1012.3mb 50f
4:30 8 9 mph 1012.3mb 50f
4:15 9 10 mph 1012.4mb 50f
4:00 11 13 mph 1012.1mb 50f
3:45 14 15 mph 1012mb 49f
3:30 13 15 mph 1011.9mb 50f
3:15 14 16 mph 1011.9mb 49f
3:00 14 16 mph 1011.6mb 50f
2:45 14 15 mph 1011.7mb 50f
2:30 11 14 mph 1012mb 50f
2:15 11 14 mph 1011.7mb 49f
2:00 16 17 mph 1011.9mb 49f
1:45 17 21 mph 1012mb 49f
1:30 17 20 mph 1012.1mb 49f
1:15 18 21 mph 1012.3mb 50f
1:00 18 21 mph 1012.5mb 50f
12:45 18 20 mph 1012.5mb 50f
12:30 14 16 mph 1012.7mb 50f
12:15 8 13 mph 1012.7mb 50f
12:00 8 9 mph 1012.9mb 49f
11:45 8 9 mph 1013mb 49f
11:30 10 13 mph 1013.2mb 49f
11:15 8 9 mph 1013.3mb 49f
11:00 8 11 mph 1013mb 49f
10:45 10 14 mph 1013.1mb 48f
10:30 13 16 mph 1013.2mb 48f
10:15 15 18 mph 1012.8mb 48f
10:00 14 16 mph 1012.7mb 48f
9:45 14 16 mph 1012.4mb 48f
9:30 15 16 mph 1012.4mb 48f
9:15 14 17 mph 1012.3mb 47f
9:00 14 16 mph 1012.3mb 47f
8:45 15 18 mph 1012.3mb 48f
8:30 13 16 mph 1012mb 47f
8:15 11 15 mph 1012.2mb 47f
8:00 11 14 mph 1012.4mb 47f
7:45 10 14 mph 1012.3mb 47f
7:30 10 11 mph 1012.4mb 46f
7:15 10 14 mph 1012.1mb 46f
7:00 13 16 mph 1012mb 46f
6:45 13 15 mph 1012.2mb 46f
6:30 11 15 mph 1011.9mb 46f
6:15 13 15 mph 1012mb 46f
6:00 14 16 mph 1012mb 46f
5:45 15 18 mph 1011.5mb 46f
5:30 18 22 mph 1011.5mb 47f
5:15 18 22 mph 1011.3mb 47f
5:00 15 18 mph 1011.4mb 47f
4:45 15 18 mph 1011.8mb 47f
4:30 16 18 mph 1011.7mb 47f
4:15 16 20 mph 1012mb 48f
4:00 13 14 mph 1012.3mb 48f
3:45 14 16 mph 1012.1mb 48f
3:30 14 16 mph 1012.1mb 49f
3:15 13 15 mph 1012mb 49f
3:00 10 14 mph 1012.3mb 49f
2:45 8 10 mph 1012mb 49f
2:30 9 11 mph 1012.2mb 49f
2:15 6 8 mph 1012.1mb 49f
2:00 5 7 mph 1012.5mb 49f
1:45 7 10 mph 1012.4mb 49f
1:30 6 9 mph 1012.4mb 49f
1:15 6 9 mph 1012.6mb 49f
1:00 10 14 mph 1012.6mb 48f